sensor_id;sensor_type;location;lat;lon;timestamp;P1;durP1;ratioP1;P2;durP2;ratioP2
14094;SDS011;18096;48.142;16.290;2022-09-30T00:00:58;2.20;;;2.10;;
14094;SDS011;18096;48.142;16.290;2022-09-30T00:03:23;1.70;;;1.60;;
14094;SDS011;18096;48.142;16.290;2022-09-30T00:05:56;2.30;;;2.20;;
14094;SDS011;18096;48.142;16.290;2022-09-30T00:08:22;1.80;;;1.70;;
14094;SDS011;18096;48.142;16.290;2022-09-30T00:10:57;2.00;;;1.90;;
14094;SDS011;18096;48.142;16.290;2022-09-30T00:13:36;1.63;;;1.52;;
14094;SDS011;18096;48.142;16.290;2022-09-30T00:16:04;4.20;;;2.05;;
14094;SDS011;18096;48.142;16.290;2022-09-30T00:18:31;1.70;;;1.60;;
14094;SDS011;18096;48.142;16.290;2022-09-30T00:20:57;1.60;;;1.50;;
14094;SDS011;18096;48.142;16.290;2022-09-30T00:23:23;2.30;;;2.10;;
14094;SDS011;18096;48.142;16.290;2022-09-30T00:25:50;3.92;;;2.53;;
14094;SDS011;18096;48.142;16.290;2022-09-30T00:28:21;5.30;;;2.30;;
14094;SDS011;18096;48.142;16.290;2022-09-30T00:30:46;2.40;;;2.20;;
14094;SDS011;18096;48.142;16.290;2022-09-30T00:33:12;3.10;;;2.00;;
14094;SDS011;18096;48.142;16.290;2022-09-30T00:35:38;4.30;;;2.88;;
14094;SDS011;18096;48.142;16.290;2022-09-30T00:38:04;3.33;;;2.63;;
14094;SDS011;18096;48.142;16.290;2022-09-30T00:40:29;2.85;;;2.50;;
14094;SDS011;18096;48.142;16.290;2022-09-30T00:42:55;3.07;;;2.97;;
14094;SDS011;18096;48.142;16.290;2022-09-30T00:45:21;4.65;;;2.60;;
14094;SDS011;18096;48.142;16.290;2022-09-30T00:47:53;3.72;;;2.45;;
14094;SDS011;18096;48.142;16.290;2022-09-30T00:50:41;4.97;;;2.87;;
14094;SDS011;18096;48.142;16.290;2022-09-30T00:56:09;3.53;;;2.47;;
14094;SDS011;18096;48.142;16.290;2022-09-30T00:58:38;3.13;;;2.75;;
14094;SDS011;18096;48.142;16.290;2022-09-30T01:01:13;3.30;;;2.90;;
14094;SDS011;18096;48.142;16.290;2022-09-30T01:03:44;2.88;;;2.42;;
14094;SDS011;18096;48.142;16.290;2022-09-30T01:06:31;1.90;;;1.80;;
14094;SDS011;18096;48.142;16.290;2022-09-30T01:08:57;2.88;;;2.40;;
14094;SDS011;18096;48.142;16.290;2022-09-30T01:11:23;2.10;;;2.00;;
14094;SDS011;18096;48.142;16.290;2022-09-30T01:13:51;8.52;;;2.20;;
14094;SDS011;18096;48.142;16.290;2022-09-30T01:16:36;3.03;;;2.70;;
14094;SDS011;18096;48.142;16.290;2022-09-30T01:24:55;4.47;;;2.65;;
14094;SDS011;18096;48.142;16.290;2022-09-30T01:35:45;2.85;;;2.65;;
14094;SDS011;18096;48.142;16.290;2022-09-30T01:47:07;6.77;;;3.20;;
14094;SDS011;18096;48.142;16.290;2022-09-30T01:49:46;6.07;;;2.47;;
14094;SDS011;18096;48.142;16.290;2022-09-30T01:52:14;3.75;;;3.45;;
14094;SDS011;18096;48.142;16.290;2022-09-30T01:54:47;3.92;;;3.20;;
14094;SDS011;18096;48.142;16.290;2022-09-30T01:57:28;3.83;;;3.53;;
14094;SDS011;18096;48.142;16.290;2022-09-30T02:00:04;2.80;;;2.70;;
14094;SDS011;18096;48.142;16.290;2022-09-30T02:02:33;3.53;;;3.22;;
14094;SDS011;18096;48.142;16.290;2022-09-30T02:05:10;3.60;;;3.30;;
14094;SDS011;18096;48.142;16.290;2022-09-30T02:07:57;5.80;;;3.20;;
14094;SDS011;18096;48.142;16.290;2022-09-30T02:10:30;3.67;;;3.37;;
14094;SDS011;18096;48.142;16.290;2022-09-30T02:13:12;3.63;;;3.00;;
14094;SDS011;18096;48.142;16.290;2022-09-30T02:15:43;3.40;;;3.20;;
14094;SDS011;18096;48.142;16.290;2022-09-30T02:18:16;2.70;;;2.50;;
14094;SDS011;18096;48.142;16.290;2022-09-30T02:20:48;3.13;;;2.93;;
14094;SDS011;18096;48.142;16.290;2022-09-30T02:23:30;3.53;;;3.10;;
14094;SDS011;18096;48.142;16.290;2022-09-30T02:29:00;3.00;;;2.80;;
14094;SDS011;18096;48.142;16.290;2022-09-30T02:31:35;3.35;;;3.15;;
14094;SDS011;18096;48.142;16.290;2022-09-30T02:34:08;3.38;;;3.08;;
14094;SDS011;18096;48.142;16.290;2022-09-30T02:36:42;3.58;;;3.28;;
14094;SDS011;18096;48.142;16.290;2022-09-30T02:39:22;3.63;;;3.17;;
14094;SDS011;18096;48.142;16.290;2022-09-30T02:41:54;3.97;;;2.78;;
14094;SDS011;18096;48.142;16.290;2022-09-30T02:44:26;3.78;;;3.47;;
14094;SDS011;18096;48.142;16.290;2022-09-30T02:46:57;3.53;;;3.33;;
14094;SDS011;18096;48.142;16.290;2022-09-30T02:49:30;3.90;;;3.50;;
14094;SDS011;18096;48.142;16.290;2022-09-30T02:52:12;4.00;;;3.65;;
14094;SDS011;18096;48.142;16.290;2022-09-30T03:00:06;4.80;;;4.37;;
14094;SDS011;18096;48.142;16.290;2022-09-30T03:02:33;4.53;;;4.13;;
14094;SDS011;18096;48.142;16.290;2022-09-30T03:04:59;4.40;;;4.00;;
14094;SDS011;18096;48.142;16.290;2022-09-30T03:07:25;4.10;;;3.70;;
14094;SDS011;18096;48.142;16.290;2022-09-30T03:09:54;3.95;;;3.55;;
14094;SDS011;18096;48.142;16.290;2022-09-30T03:23:02;4.10;;;3.60;;
14094;SDS011;18096;48.142;16.290;2022-09-30T03:31:49;10.43;;;3.88;;
14094;SDS011;18096;48.142;16.290;2022-09-30T03:34:37;3.92;;;3.63;;
14094;SDS011;18096;48.142;16.290;2022-09-30T03:37:29;3.70;;;3.40;;
14094;SDS011;18096;48.142;16.290;2022-09-30T03:40:19;3.90;;;3.60;;
14094;SDS011;18096;48.142;16.290;2022-09-30T03:46:05;3.50;;;3.20;;
14094;SDS011;18096;48.142;16.290;2022-09-30T03:48:49;5.13;;;3.63;;
14094;SDS011;18096;48.142;16.290;2022-09-30T03:51:19;4.20;;;3.80;;
14094;SDS011;18096;48.142;16.290;2022-09-30T03:53:48;4.40;;;4.10;;
14094;SDS011;18096;48.142;16.290;2022-09-30T03:56:15;3.92;;;3.60;;
14094;SDS011;18096;48.142;16.290;2022-09-30T03:58:57;4.28;;;3.90;;
14094;SDS011;18096;48.142;16.290;2022-09-30T04:01:24;6.50;;;4.10;;
14094;SDS011;18096;48.142;16.290;2022-09-30T04:03:50;5.70;;;4.43;;
14094;SDS011;18096;48.142;16.290;2022-09-30T04:06:17;4.65;;;4.25;;
14094;SDS011;18096;48.142;16.290;2022-09-30T04:08:44;4.45;;;4.05;;
14094;SDS011;18096;48.142;16.290;2022-09-30T04:11:10;5.47;;;4.70;;
14094;SDS011;18096;48.142;16.290;2022-09-30T04:13:36;6.57;;;4.75;;
14094;SDS011;18096;48.142;16.290;2022-09-30T04:16:02;4.70;;;4.25;;
14094;SDS011;18096;48.142;16.290;2022-09-30T04:18:29;6.23;;;4.93;;
14094;SDS011;18096;48.142;16.290;2022-09-30T04:20:55;4.28;;;3.97;;
14094;SDS011;18096;48.142;16.290;2022-09-30T04:23:21;4.80;;;4.40;;
14094;SDS011;18096;48.142;16.290;2022-09-30T04:25:51;4.10;;;3.80;;
14094;SDS011;18096;48.142;16.290;2022-09-30T04:28:20;4.10;;;3.70;;
14094;SDS011;18096;48.142;16.290;2022-09-30T04:30:47;4.97;;;4.30;;
14094;SDS011;18096;48.142;16.290;2022-09-30T04:33:12;8.32;;;4.20;;
14094;SDS011;18096;48.142;16.290;2022-09-30T04:35:38;10.50;;;4.38;;
14094;SDS011;18096;48.142;16.290;2022-09-30T04:38:04;4.20;;;3.90;;
14094;SDS011;18096;48.142;16.290;2022-09-30T04:40:31;5.53;;;4.30;;
14094;SDS011;18096;48.142;16.290;2022-09-30T04:43:02;5.00;;;4.50;;
14094;SDS011;18096;48.142;16.290;2022-09-30T04:45:27;6.43;;;4.60;;
14094;SDS011;18096;48.142;16.290;2022-09-30T04:47:54;8.55;;;3.58;;
14094;SDS011;18096;48.142;16.290;2022-09-30T04:50:19;9.73;;;4.90;;
14094;SDS011;18096;48.142;16.290;2022-09-30T04:52:45;7.00;;;4.35;;
14094;SDS011;18096;48.142;16.290;2022-09-30T04:55:11;5.70;;;4.50;;
14094;SDS011;18096;48.142;16.290;2022-09-30T04:57:37;4.70;;;4.30;;
14094;SDS011;18096;48.142;16.290;2022-09-30T05:00:03;5.97;;;4.30;;
14094;SDS011;18096;48.142;16.290;2022-09-30T05:02:33;4.45;;;4.05;;
14094;SDS011;18096;48.142;16.290;2022-09-30T05:04:58;5.30;;;4.80;;
14094;SDS011;18096;48.142;16.290;2022-09-30T05:07:24;4.03;;;3.83;;
14094;SDS011;18096;48.142;16.290;2022-09-30T05:09:50;4.50;;;4.18;;
14094;SDS011;18096;48.142;16.290;2022-09-30T05:12:17;6.20;;;5.40;;
14094;SDS011;18096;48.142;16.290;2022-09-30T05:14:43;5.57;;;5.03;;
14094;SDS011;18096;48.142;16.290;2022-09-30T05:17:08;4.60;;;4.20;;
14094;SDS011;18096;48.142;16.290;2022-09-30T05:19:34;4.60;;;4.00;;
14094;SDS011;18096;48.142;16.290;2022-09-30T05:22:00;5.20;;;4.70;;
14094;SDS011;18096;48.142;16.290;2022-09-30T05:24:26;4.45;;;4.05;;
14094;SDS011;18096;48.142;16.290;2022-09-30T05:26:54;5.03;;;4.10;;
14094;SDS011;18096;48.142;16.290;2022-09-30T05:29:19;4.88;;;4.47;;
14094;SDS011;18096;48.142;16.290;2022-09-30T05:31:45;4.70;;;4.20;;
14094;SDS011;18096;48.142;16.290;2022-09-30T05:34:10;4.65;;;4.22;;
14094;SDS011;18096;48.142;16.290;2022-09-30T05:36:36;4.83;;;4.30;;
14094;SDS011;18096;48.142;16.290;2022-09-30T05:39:02;5.18;;;4.22;;
14094;SDS011;18096;48.142;16.290;2022-09-30T05:41:27;8.27;;;3.75;;
14094;SDS011;18096;48.142;16.290;2022-09-30T05:43:53;4.07;;;3.40;;
14094;SDS011;18096;48.142;16.290;2022-09-30T05:46:19;3.22;;;3.03;;
14094;SDS011;18096;48.142;16.290;2022-09-30T05:48:45;3.40;;;3.10;;
14094;SDS011;18096;48.142;16.290;2022-09-30T05:51:11;3.30;;;3.10;;
14094;SDS011;18096;48.142;16.290;2022-09-30T05:53:37;3.20;;;3.00;;
14094;SDS011;18096;48.142;16.290;2022-09-30T05:56:03;3.10;;;2.90;;
14094;SDS011;18096;48.142;16.290;2022-09-30T05:58:30;4.38;;;3.90;;
14094;SDS011;18096;48.142;16.290;2022-09-30T06:01:02;4.00;;;3.70;;
14094;SDS011;18096;48.142;16.290;2022-09-30T06:03:32;3.67;;;3.40;;
14094;SDS011;18096;48.142;16.290;2022-09-30T06:05:58;3.65;;;3.35;;
14094;SDS011;18096;48.142;16.290;2022-09-30T06:08:24;3.72;;;3.42;;
14094;SDS011;18096;48.142;16.290;2022-09-30T06:10:50;3.92;;;3.53;;
14094;SDS011;18096;48.142;16.290;2022-09-30T06:13:16;3.55;;;3.28;;
14094;SDS011;18096;48.142;16.290;2022-09-30T06:15:42;4.35;;;3.50;;
14094;SDS011;18096;48.142;16.290;2022-09-30T06:18:08;3.72;;;3.42;;
14094;SDS011;18096;48.142;16.290;2022-09-30T06:20:36;3.78;;;3.38;;
14094;SDS011;18096;48.142;16.290;2022-09-30T06:23:02;4.15;;;3.72;;
14094;SDS011;18096;48.142;16.290;2022-09-30T06:25:28;3.73;;;3.47;;
14094;SDS011;18096;48.142;16.290;2022-09-30T06:27:55;3.23;;;2.93;;
14094;SDS011;18096;48.142;16.290;2022-09-30T06:30:21;3.30;;;3.10;;
14094;SDS011;18096;48.142;16.290;2022-09-30T06:32:46;3.10;;;2.90;;
14094;SDS011;18096;48.142;16.290;2022-09-30T06:35:12;3.13;;;2.92;;
14094;SDS011;18096;48.142;16.290;2022-09-30T06:37:38;2.93;;;2.73;;
14094;SDS011;18096;48.142;16.290;2022-09-30T06:40:04;2.72;;;2.53;;
14094;SDS011;18096;48.142;16.290;2022-09-30T06:42:31;3.10;;;2.90;;
14094;SDS011;18096;48.142;16.290;2022-09-30T06:44:58;3.05;;;2.58;;
14094;SDS011;18096;48.142;16.290;2022-09-30T06:47:24;3.00;;;2.80;;
14094;SDS011;18096;48.142;16.290;2022-09-30T06:49:49;9.80;;;4.95;;
14094;SDS011;18096;48.142;16.290;2022-09-30T06:52:17;9.00;;;4.07;;
14094;SDS011;18096;48.142;16.290;2022-09-30T06:54:44;3.20;;;3.00;;
14094;SDS011;18096;48.142;16.290;2022-09-30T06:57:10;4.15;;;3.35;;
14094;SDS011;18096;48.142;16.290;2022-09-30T06:59:37;3.75;;;3.45;;
14094;SDS011;18096;48.142;16.290;2022-09-30T07:02:02;3.40;;;3.10;;
14094;SDS011;18096;48.142;16.290;2022-09-30T07:04:29;3.60;;;3.30;;
14094;SDS011;18096;48.142;16.290;2022-09-30T07:06:54;2.92;;;2.72;;
14094;SDS011;18096;48.142;16.290;2022-09-30T07:09:20;3.07;;;2.70;;
14094;SDS011;18096;48.142;16.290;2022-09-30T07:11:46;2.90;;;2.70;;
14094;SDS011;18096;48.142;16.290;2022-09-30T07:14:12;3.33;;;3.13;;
14094;SDS011;18096;48.142;16.290;2022-09-30T07:16:38;4.72;;;2.78;;
14094;SDS011;18096;48.142;16.290;2022-09-30T07:19:05;2.70;;;2.50;;
14094;SDS011;18096;48.142;16.290;2022-09-30T07:21:32;3.20;;;2.90;;
14094;SDS011;18096;48.142;16.290;2022-09-30T07:23:58;2.60;;;2.40;;
14094;SDS011;18096;48.142;16.290;2022-09-30T07:26:24;3.05;;;2.70;;
14094;SDS011;18096;48.142;16.290;2022-09-30T07:28:51;3.00;;;2.80;;
14094;SDS011;18096;48.142;16.290;2022-09-30T07:31:21;3.30;;;3.00;;
14094;SDS011;18096;48.142;16.290;2022-09-30T07:33:48;4.97;;;3.88;;
14094;SDS011;18096;48.142;16.290;2022-09-30T07:36:19;4.05;;;3.45;;
14094;SDS011;18096;48.142;16.290;2022-09-30T07:38:50;3.13;;;2.83;;
14094;SDS011;18096;48.142;16.290;2022-09-30T07:41:20;3.58;;;3.28;;
14094;SDS011;18096;48.142;16.290;2022-09-30T07:43:51;4.05;;;3.65;;
14094;SDS011;18096;48.142;16.290;2022-09-30T07:46:21;3.10;;;2.80;;
14094;SDS011;18096;48.142;16.290;2022-09-30T07:48:50;11.10;;;3.37;;
14094;SDS011;18096;48.142;16.290;2022-09-30T07:51:19;3.63;;;3.27;;
14094;SDS011;18096;48.142;16.290;2022-09-30T07:53:51;4.80;;;4.30;;
14094;SDS011;18096;48.142;16.290;2022-09-30T07:56:19;3.30;;;3.10;;
14094;SDS011;18096;48.142;16.290;2022-09-30T07:58:46;4.00;;;3.70;;
14094;SDS011;18096;48.142;16.290;2022-09-30T08:01:12;4.00;;;3.70;;
14094;SDS011;18096;48.142;16.290;2022-09-30T08:03:39;3.70;;;3.40;;
14094;SDS011;18096;48.142;16.290;2022-09-30T08:08:33;4.00;;;3.60;;
14094;SDS011;18096;48.142;16.290;2022-09-30T08:10:59;5.68;;;4.28;;
14094;SDS011;18096;48.142;16.290;2022-09-30T08:13:26;7.82;;;4.35;;
14094;SDS011;18096;48.142;16.290;2022-09-30T08:15:52;4.75;;;4.22;;
14094;SDS011;18096;48.142;16.290;2022-09-30T08:18:17;4.80;;;4.30;;
14094;SDS011;18096;48.142;16.290;2022-09-30T08:20:43;4.60;;;4.20;;
14094;SDS011;18096;48.142;16.290;2022-09-30T08:23:09;4.85;;;4.45;;
14094;SDS011;18096;48.142;16.290;2022-09-30T08:25:34;5.13;;;4.63;;
14094;SDS011;18096;48.142;16.290;2022-09-30T08:28:00;4.40;;;4.10;;
14094;SDS011;18096;48.142;16.290;2022-09-30T08:30:26;7.38;;;4.38;;
14094;SDS011;18096;48.142;16.290;2022-09-30T08:32:52;6.03;;;4.20;;
14094;SDS011;18096;48.142;16.290;2022-09-30T08:35:17;4.47;;;4.10;;
14094;SDS011;18096;48.142;16.290;2022-09-30T08:37:43;5.00;;;4.50;;
14094;SDS011;18096;48.142;16.290;2022-09-30T08:40:18;7.30;;;4.30;;
14094;SDS011;18096;48.142;16.290;2022-09-30T08:43:12;4.90;;;4.15;;
14094;SDS011;18096;48.142;16.290;2022-09-30T08:46:10;5.72;;;4.40;;
14094;SDS011;18096;48.142;16.290;2022-09-30T08:49:02;4.90;;;3.80;;
14094;SDS011;18096;48.142;16.290;2022-09-30T08:51:45;8.35;;;4.18;;
14094;SDS011;18096;48.142;16.290;2022-09-30T08:54:14;5.55;;;4.35;;
14094;SDS011;18096;48.142;16.290;2022-09-30T08:56:43;3.80;;;3.50;;
14094;SDS011;18096;48.142;16.290;2022-09-30T08:59:45;4.20;;;3.80;;
14094;SDS011;18096;48.142;16.290;2022-09-30T09:02:12;5.05;;;4.55;;
14094;SDS011;18096;48.142;16.290;2022-09-30T09:04:42;4.95;;;3.90;;
14094;SDS011;18096;48.142;16.290;2022-09-30T09:13:17;5.55;;;3.47;;
14094;SDS011;18096;48.142;16.290;2022-09-30T09:18:58;8.05;;;4.32;;
14094;SDS011;18096;48.142;16.290;2022-09-30T09:24:24;4.27;;;3.87;;
14094;SDS011;18096;48.142;16.290;2022-09-30T09:26:52;5.35;;;3.92;;
14094;SDS011;18096;48.142;16.290;2022-09-30T09:31:55;8.10;;;3.90;;
14094;SDS011;18096;48.142;16.290;2022-09-30T09:34:23;3.63;;;3.42;;
14094;SDS011;18096;48.142;16.290;2022-09-30T09:45:17;4.10;;;3.70;;
14094;SDS011;18096;48.142;16.290;2022-09-30T09:47:51;3.20;;;3.00;;
14094;SDS011;18096;48.142;16.290;2022-09-30T09:50:22;4.97;;;3.25;;
14094;SDS011;18096;48.142;16.290;2022-09-30T09:55:56;2.53;;;2.42;;
14094;SDS011;18096;48.142;16.290;2022-09-30T09:58:24;4.10;;;3.50;;
14094;SDS011;18096;48.142;16.290;2022-09-30T10:00:50;4.13;;;3.00;;
14094;SDS011;18096;48.142;16.290;2022-09-30T10:03:17;4.20;;;3.30;;
14094;SDS011;18096;48.142;16.290;2022-09-30T10:05:57;3.53;;;3.05;;
14094;SDS011;18096;48.142;16.290;2022-09-30T10:08:27;2.97;;;2.78;;
14094;SDS011;18096;48.142;16.290;2022-09-30T10:10:57;3.38;;;2.90;;
14094;SDS011;18096;48.142;16.290;2022-09-30T10:13:58;4.07;;;3.28;;
14094;SDS011;18096;48.142;16.290;2022-09-30T10:16:27;3.33;;;3.03;;
14094;SDS011;18096;48.142;16.290;2022-09-30T10:18:55;3.03;;;2.80;;
14094;SDS011;18096;48.142;16.290;2022-09-30T10:21:23;4.30;;;2.45;;
14094;SDS011;18096;48.142;16.290;2022-09-30T10:23:50;3.13;;;2.83;;
14094;SDS011;18096;48.142;16.290;2022-09-30T10:26:19;2.70;;;2.50;;
14094;SDS011;18096;48.142;16.290;2022-09-30T10:31:32;6.50;;;2.10;;
14094;SDS011;18096;48.142;16.290;2022-09-30T10:36:49;2.45;;;2.25;;
14094;SDS011;18096;48.142;16.290;2022-09-30T10:42:07;3.40;;;1.83;;
14094;SDS011;18096;48.142;16.290;2022-09-30T10:44:47;2.00;;;1.90;;
14094;SDS011;18096;48.142;16.290;2022-09-30T10:47:17;3.00;;;2.10;;
14094;SDS011;18096;48.142;16.290;2022-09-30T10:49:49;2.73;;;1.90;;
14094;SDS011;18096;48.142;16.290;2022-09-30T10:52:32;3.63;;;2.40;;
14094;SDS011;18096;48.142;16.290;2022-09-30T10:55:07;1.80;;;1.70;;
14094;SDS011;18096;48.142;16.290;2022-09-30T10:57:50;2.60;;;2.40;;
14094;SDS011;18096;48.142;16.290;2022-09-30T11:00:18;6.80;;;2.00;;
14094;SDS011;18096;48.142;16.290;2022-09-30T11:05:28;2.08;;;1.98;;
14094;SDS011;18096;48.142;16.290;2022-09-30T11:27:07;2.60;;;1.30;;
14094;SDS011;18096;48.142;16.290;2022-09-30T11:35:54;1.30;;;1.20;;
14094;SDS011;18096;48.142;16.290;2022-09-30T11:41:29;1.38;;;1.27;;
14094;SDS011;18096;48.142;16.290;2022-09-30T11:44:23;1.13;;;1.13;;
14094;SDS011;18096;48.142;16.290;2022-09-30T11:50:13;1.15;;;1.10;;
14094;SDS011;18096;48.142;16.290;2022-09-30T11:53:09;5.88;;;1.63;;
14094;SDS011;18096;48.142;16.290;2022-09-30T11:58:36;1.45;;;1.35;;
14094;SDS011;18096;48.142;16.290;2022-09-30T12:03:47;2.03;;;1.33;;
14094;SDS011;18096;48.142;16.290;2022-09-30T12:06:27;1.60;;;1.50;;
14094;SDS011;18096;48.142;16.290;2022-09-30T12:16:53;1.20;;;1.10;;
14094;SDS011;18096;48.142;16.290;2022-09-30T12:19:39;1.55;;;1.45;;
14094;SDS011;18096;48.142;16.290;2022-09-30T12:22:17;1.00;;;1.00;;
14094;SDS011;18096;48.142;16.290;2022-09-30T12:24:48;1.30;;;1.20;;
14094;SDS011;18096;48.142;16.290;2022-09-30T12:27:31;1.20;;;1.20;;
14094;SDS011;18096;48.142;16.290;2022-09-30T12:30:13;2.50;;;1.50;;
14094;SDS011;18096;48.142;16.290;2022-09-30T12:38:49;1.30;;;1.30;;
14094;SDS011;18096;48.142;16.290;2022-09-30T12:44:43;1.70;;;1.60;;
14094;SDS011;18096;48.142;16.290;2022-09-30T12:50:10;1.38;;;1.27;;
14094;SDS011;18096;48.142;16.290;2022-09-30T12:52:39;1.40;;;1.00;;
14094;SDS011;18096;48.142;16.290;2022-09-30T12:55:07;0.90;;;0.90;;
14094;SDS011;18096;48.142;16.290;2022-09-30T12:57:44;1.00;;;1.00;;
14094;SDS011;18096;48.142;16.290;2022-09-30T13:00:16;0.80;;;0.80;;
14094;SDS011;18096;48.142;16.290;2022-09-30T13:02:47;1.60;;;1.00;;
14094;SDS011;18096;48.142;16.290;2022-09-30T13:08:42;0.90;;;0.90;;
14094;SDS011;18096;48.142;16.290;2022-09-30T13:10:45;0.85;;;0.85;;
14094;SDS011;18096;48.142;16.290;2022-09-30T13:16:02;3.47;;;1.20;;
14094;SDS011;18096;48.142;16.290;2022-09-30T13:23:42;1.30;;;1.13;;
14094;SDS011;18096;48.142;16.290;2022-09-30T13:28:54;1.50;;;1.20;;
14094;SDS011;18096;48.142;16.290;2022-09-30T13:34:27;1.30;;;1.15;;
14094;SDS011;18096;48.142;16.290;2022-09-30T13:37:01;0.88;;;0.88;;
14094;SDS011;18096;48.142;16.290;2022-09-30T13:39:44;3.30;;;1.10;;
14094;SDS011;18096;48.142;16.290;2022-09-30T13:42:22;0.70;;;0.70;;
14094;SDS011;18096;48.142;16.290;2022-09-30T13:47:32;1.20;;;1.00;;
14094;SDS011;18096;48.142;16.290;2022-09-30T13:50:17;0.90;;;0.90;;
14094;SDS011;18096;48.142;16.290;2022-09-30T13:52:48;1.00;;;0.93;;
14094;SDS011;18096;48.142;16.290;2022-09-30T13:55:26;1.30;;;1.20;;
14094;SDS011;18096;48.142;16.290;2022-09-30T14:00:47;1.08;;;1.08;;
14094;SDS011;18096;48.142;16.290;2022-09-30T14:06:16;1.10;;;1.10;;
14094;SDS011;18096;48.142;16.290;2022-09-30T14:14:22;1.20;;;1.10;;
14094;SDS011;18096;48.142;16.290;2022-09-30T14:17:17;1.10;;;1.10;;
14094;SDS011;18096;48.142;16.290;2022-09-30T14:22:59;1.00;;;1.00;;
14094;SDS011;18096;48.142;16.290;2022-09-30T14:25:25;0.90;;;0.90;;
14094;SDS011;18096;48.142;16.290;2022-09-30T14:28:01;2.00;;;1.10;;
14094;SDS011;18096;48.142;16.290;2022-09-30T14:30:42;1.90;;;1.10;;
14094;SDS011;18096;48.142;16.290;2022-09-30T14:33:30;1.00;;;0.90;;
14094;SDS011;18096;48.142;16.290;2022-09-30T14:35:59;1.20;;;1.10;;
14094;SDS011;18096;48.142;16.290;2022-09-30T14:38:26;1.17;;;1.00;;
14094;SDS011;18096;48.142;16.290;2022-09-30T14:40:55;0.80;;;0.80;;
14094;SDS011;18096;48.142;16.290;2022-09-30T14:43:26;1.40;;;0.80;;
14094;SDS011;18096;48.142;16.290;2022-09-30T14:45:59;1.50;;;1.40;;
14094;SDS011;18096;48.142;16.290;2022-09-30T14:48:32;1.30;;;1.00;;
14094;SDS011;18096;48.142;16.290;2022-09-30T14:51:05;6.10;;;1.10;;
14094;SDS011;18096;48.142;16.290;2022-09-30T14:53:35;1.13;;;1.10;;
14094;SDS011;18096;48.142;16.290;2022-09-30T14:58:57;2.30;;;1.10;;
14094;SDS011;18096;48.142;16.290;2022-09-30T15:01:34;1.30;;;1.20;;
14094;SDS011;18096;48.142;16.290;2022-09-30T15:04:04;2.20;;;2.00;;
14094;SDS011;18096;48.142;16.290;2022-09-30T15:06:41;1.52;;;1.42;;
14094;SDS011;18096;48.142;16.290;2022-09-30T15:09:20;2.50;;;1.50;;
14094;SDS011;18096;48.142;16.290;2022-09-30T15:12:19;1.20;;;1.10;;
14094;SDS011;18096;48.142;16.290;2022-09-30T15:14:48;1.27;;;1.10;;
14094;SDS011;18096;48.142;16.290;2022-09-30T15:19:53;1.30;;;1.20;;
14094;SDS011;18096;48.142;16.290;2022-09-30T15:22:20;2.70;;;1.20;;
14094;SDS011;18096;48.142;16.290;2022-09-30T15:24:47;1.10;;;1.10;;
14094;SDS011;18096;48.142;16.290;2022-09-30T15:27:18;1.10;;;1.10;;
14094;SDS011;18096;48.142;16.290;2022-09-30T15:29:53;1.40;;;1.30;;
14094;SDS011;18096;48.142;16.290;2022-09-30T15:32:23;0.95;;;0.95;;
14094;SDS011;18096;48.142;16.290;2022-09-30T15:34:53;2.00;;;1.70;;
14094;SDS011;18096;48.142;16.290;2022-09-30T15:37:26;1.10;;;1.10;;
14094;SDS011;18096;48.142;16.290;2022-09-30T15:39:57;1.23;;;1.23;;
14094;SDS011;18096;48.142;16.290;2022-09-30T15:42:56;1.80;;;1.20;;
14094;SDS011;18096;48.142;16.290;2022-09-30T15:45:35;1.00;;;1.00;;
14094;SDS011;18096;48.142;16.290;2022-09-30T15:48:10;1.30;;;1.15;;
14094;SDS011;18096;48.142;16.290;2022-09-30T15:50:58;2.80;;;1.50;;
14094;SDS011;18096;48.142;16.290;2022-09-30T15:53:28;1.40;;;1.30;;
14094;SDS011;18096;48.142;16.290;2022-09-30T16:01:40;1.50;;;1.40;;
14094;SDS011;18096;48.142;16.290;2022-09-30T16:03:55;1.60;;;1.50;;
14094;SDS011;18096;48.142;16.290;2022-09-30T16:06:33;1.50;;;1.40;;
14094;SDS011;18096;48.142;16.290;2022-09-30T16:11:43;1.50;;;1.40;;
14094;SDS011;18096;48.142;16.290;2022-09-30T16:14:33;1.40;;;1.30;;
14094;SDS011;18096;48.142;16.290;2022-09-30T16:17:03;2.03;;;1.47;;
14094;SDS011;18096;48.142;16.290;2022-09-30T16:19:30;1.40;;;1.30;;
14094;SDS011;18096;48.142;16.290;2022-09-30T16:21:57;2.30;;;1.50;;
14094;SDS011;18096;48.142;16.290;2022-09-30T16:26:49;1.00;;;1.00;;
14094;SDS011;18096;48.142;16.290;2022-09-30T16:29:19;1.10;;;1.00;;
14094;SDS011;18096;48.142;16.290;2022-09-30T16:31:47;1.90;;;1.80;;
14094;SDS011;18096;48.142;16.290;2022-09-30T16:34:27;1.80;;;1.75;;
14094;SDS011;18096;48.142;16.290;2022-09-30T16:36:54;3.55;;;2.17;;
14094;SDS011;18096;48.142;16.290;2022-09-30T16:39:41;1.95;;;1.83;;
14094;SDS011;18096;48.142;16.290;2022-09-30T16:42:13;1.90;;;1.80;;
14094;SDS011;18096;48.142;16.290;2022-09-30T16:44:40;1.90;;;1.55;;
14094;SDS011;18096;48.142;16.290;2022-09-30T16:47:11;2.07;;;1.80;;
14094;SDS011;18096;48.142;16.290;2022-09-30T16:49:41;1.75;;;1.65;;
14094;SDS011;18096;48.142;16.290;2022-09-30T16:52:09;4.80;;;1.80;;
14094;SDS011;18096;48.142;16.290;2022-09-30T16:54:35;1.60;;;1.50;;
14094;SDS011;18096;48.142;16.290;2022-09-30T16:57:01;1.23;;;1.23;;
14094;SDS011;18096;48.142;16.290;2022-09-30T16:59:27;3.40;;;1.30;;
14094;SDS011;18096;48.142;16.290;2022-09-30T17:01:56;1.90;;;1.50;;
14094;SDS011;18096;48.142;16.290;2022-09-30T17:04:24;1.10;;;1.00;;
14094;SDS011;18096;48.142;16.290;2022-09-30T17:06:50;1.50;;;1.40;;
14094;SDS011;18096;48.142;16.290;2022-09-30T17:09:17;1.30;;;1.20;;
14094;SDS011;18096;48.142;16.290;2022-09-30T17:11:44;1.67;;;1.58;;
14094;SDS011;18096;48.142;16.290;2022-09-30T17:14:09;2.00;;;1.50;;
14094;SDS011;18096;48.142;16.290;2022-09-30T17:16:35;1.40;;;1.40;;
14094;SDS011;18096;48.142;16.290;2022-09-30T17:19:02;3.78;;;1.58;;
14094;SDS011;18096;48.142;16.290;2022-09-30T17:21:28;2.10;;;1.67;;
14094;SDS011;18096;48.142;16.290;2022-09-30T17:23:54;2.42;;;1.77;;
14094;SDS011;18096;48.142;16.290;2022-09-30T17:26:20;3.40;;;1.70;;
14094;SDS011;18096;48.142;16.290;2022-09-30T17:28:46;2.20;;;2.10;;
14094;SDS011;18096;48.142;16.290;2022-09-30T17:31:11;1.80;;;1.50;;
14094;SDS011;18096;48.142;16.290;2022-09-30T17:33:38;1.60;;;1.50;;
14094;SDS011;18096;48.142;16.290;2022-09-30T17:36:06;2.20;;;1.90;;
14094;SDS011;18096;48.142;16.290;2022-09-30T17:38:34;4.40;;;2.10;;
14094;SDS011;18096;48.142;16.290;2022-09-30T17:41:01;2.72;;;1.90;;
14094;SDS011;18096;48.142;16.290;2022-09-30T17:43:46;2.10;;;1.80;;
14094;SDS011;18096;48.142;16.290;2022-09-30T17:46:12;1.40;;;1.30;;
14094;SDS011;18096;48.142;16.290;2022-09-30T17:48:53;1.80;;;1.70;;
14094;SDS011;18096;48.142;16.290;2022-09-30T17:51:20;3.90;;;2.08;;
14094;SDS011;18096;48.142;16.290;2022-09-30T17:53:45;1.83;;;1.50;;
14094;SDS011;18096;48.142;16.290;2022-09-30T17:56:15;1.88;;;1.80;;
14094;SDS011;18096;48.142;16.290;2022-09-30T17:58:43;1.90;;;1.70;;
14094;SDS011;18096;48.142;16.290;2022-09-30T18:01:11;1.80;;;1.70;;
14094;SDS011;18096;48.142;16.290;2022-09-30T18:03:38;2.63;;;2.00;;
14094;SDS011;18096;48.142;16.290;2022-09-30T18:06:04;2.20;;;2.10;;
14094;SDS011;18096;48.142;16.290;2022-09-30T18:08:30;2.50;;;2.30;;
14094;SDS011;18096;48.142;16.290;2022-09-30T18:10:56;4.03;;;2.22;;
14094;SDS011;18096;48.142;16.290;2022-09-30T18:13:22;2.10;;;2.00;;
14094;SDS011;18096;48.142;16.290;2022-09-30T18:15:49;5.22;;;2.15;;